Hua-lien, Taiwan
Current Conditions -  °F | °C
As of 7:00 AM on Saturday 20 Dec 2014 (Local Time) from RCMQ Reporting Station
Light Rain Light Rain  
Wind Chill: 57°   Ceiling: 2500
Heat Index: 57°   Visibility: 6mi
Dew Point: 52°   Wind: 20mph
Humidity: 82%   Direction: 10°N
Pressure: 30.09"   Gusts: NA
Location:  24.02°N, 121.62°E
Report Text: RCMQ 192300Z 01017KT 9999 -RA FEW010 BKN025 BKN050 14/11 Q1019 RMK A3010
Loading
Personal Weather Stations






























Interactive Weather Map New forecast layout! Learn more

10-Day Weather Forecast

Advertisements
Track Severe Weather on mobile